Disclaimer

Please do not use the information listed here in-flight or in-navigation, as they are not provided to us by the airports but are provided by volunteers, so they might be outdated.

Search


Regions


Airport information page

Radio informations:
VLADIVOSTOK VOLM - 126.4 MHz
TAXIING - 121.7 MHz
VLADIVOSTOK ATIS - 127.8 MHz
KRUG - 126.0 MHz

Airport informations:
Latitude: 43° 23' 56.23" N
Longitude: 132° 08' 52.86" E
Elevation: 46 feet - 14 meters
Operating hours: Remarks
Operating agency: Civil government, landing fees and diplomatic clearance may be required
Timezone: UTC+10(+11DT) - Last Sunday in March to last Sunday in October
Fuel: N/A

Runway information:
06/24 - 3191 x 65 feet< - >973 x 20 meters
07R/25L - 8202 x 197 feet< - >2500 x 60 meters
07L/25R - 11483 x 197 feet< - >3500 x 60 meters
16/34 - 1975 x 65 feet< - >602 x 20 meters

Recent METARs:
UHWW 180600Z 03004MPS 9999 NSC 05/M13 Q1018 R25L/0///70 NOSIG RMK QFE762
UHWW 180630Z 04004MPS 9999 NSC 04/M14 Q1018 R25L/0///70 NOSIG RMK QFE762
UHWW 180700Z 03003MPS 9999 NSC 04/M14 Q1018 R25L/0///70 NOSIG RMK QFE762

Airport on the map: